sensor_id;sensor_type;location;lat;lon;timestamp;temperature;humidity
39453;DHT22;25154;-33.684;151.102;2023-04-06T00:02:40;18.90;99.90
39453;DHT22;25154;-33.684;151.102;2023-04-06T00:07:43;19.00;99.90
39453;DHT22;25154;-33.684;151.102;2023-04-06T00:12:46;19.40;99.90
39453;DHT22;25154;-33.684;151.102;2023-04-06T00:17:49;20.00;99.90
39453;DHT22;25154;-33.684;151.102;2023-04-06T00:22:52;20.20;99.90
39453;DHT22;25154;-33.684;151.102;2023-04-06T00:27:55;20.20;99.90
39453;DHT22;25154;-33.684;151.102;2023-04-06T00:32:57;20.10;99.90
39453;DHT22;25154;-33.684;151.102;2023-04-06T00:38:03;19.70;99.90
39453;DHT22;25154;-33.684;151.102;2023-04-06T00:43:06;19.30;99.90
39453;DHT22;25154;-33.684;151.102;2023-04-06T00:48:10;18.80;99.90
39453;DHT22;25154;-33.684;151.102;2023-04-06T00:53:13;18.40;99.90
39453;DHT22;25154;-33.684;151.102;2023-04-06T00:58:16;18.30;99.90
39453;DHT22;25154;-33.684;151.102;2023-04-06T01:03:18;18.20;99.90
39453;DHT22;25154;-33.684;151.102;2023-04-06T01:08:23;18.10;99.90
39453;DHT22;25154;-33.684;151.102;2023-04-06T01:13:26;17.90;99.90
39453;DHT22;25154;-33.684;151.102;2023-04-06T01:18:30;17.80;99.90
39453;DHT22;25154;-33.684;151.102;2023-04-06T01:23:32;17.70;99.90
39453;DHT22;25154;-33.684;151.102;2023-04-06T01:28:35;17.80;99.90
39453;DHT22;25154;-33.684;151.102;2023-04-06T01:33:39;17.80;99.90
39453;DHT22;25154;-33.684;151.102;2023-04-06T01:38:42;17.90;99.90
39453;DHT22;25154;-33.684;151.102;2023-04-06T01:43:46;18.00;99.90
39453;DHT22;25154;-33.684;151.102;2023-04-06T01:48:49;18.40;99.90
39453;DHT22;25154;-33.684;151.102;2023-04-06T01:53:52;19.10;99.90
39453;DHT22;25154;-33.684;151.102;2023-04-06T01:58:55;19.50;99.90
39453;DHT22;25154;-33.684;151.102;2023-04-06T02:03:58;19.90;99.90
39453;DHT22;25154;-33.684;151.102;2023-04-06T02:09:00;19.90;99.90
39453;DHT22;25154;-33.684;151.102;2023-04-06T02:14:03;19.60;99.90
39453;DHT22;25154;-33.684;151.102;2023-04-06T02:19:06;19.80;99.90
39453;DHT22;25154;-33.684;151.102;2023-04-06T02:24:09;20.30;99.90
39453;DHT22;25154;-33.684;151.102;2023-04-06T02:29:12;20.70;99.90
39453;DHT22;25154;-33.684;151.102;2023-04-06T02:34:15;20.80;99.90
39453;DHT22;25154;-33.684;151.102;2023-04-06T02:39:20;22.90;99.90
39453;DHT22;25154;-33.684;151.102;2023-04-06T02:44:22;20.80;99.90
39453;DHT22;25154;-33.684;151.102;2023-04-06T02:49:25;20.50;99.90
39453;DHT22;25154;-33.684;151.102;2023-04-06T02:54:28;20.20;99.90
39453;DHT22;25154;-33.684;151.102;2023-04-06T02:59:31;19.80;99.90
39453;DHT22;25154;-33.684;151.102;2023-04-06T03:04:34;19.70;99.90
39453;DHT22;25154;-33.684;151.102;2023-04-06T03:09:37;19.60;99.90
39453;DHT22;25154;-33.684;151.102;2023-04-06T03:14:40;19.70;99.90
39453;DHT22;25154;-33.684;151.102;2023-04-06T03:19:43;19.80;99.90
39453;DHT22;25154;-33.684;151.102;2023-04-06T03:24:46;19.90;99.90
39453;DHT22;25154;-33.684;151.102;2023-04-06T03:29:49;20.10;99.90
39453;DHT22;25154;-33.684;151.102;2023-04-06T03:34:51;20.30;99.90
39453;DHT22;25154;-33.684;151.102;2023-04-06T03:39:54;20.40;99.90
39453;DHT22;25154;-33.684;151.102;2023-04-06T03:44:58;20.50;99.90
39453;DHT22;25154;-33.684;151.102;2023-04-06T03:50:00;20.50;99.90
39453;DHT22;25154;-33.684;151.102;2023-04-06T03:55:05;20.50;99.90
39453;DHT22;25154;-33.684;151.102;2023-04-06T04:00:08;20.40;99.90
39453;DHT22;25154;-33.684;151.102;2023-04-06T04:05:11;20.40;99.90
39453;DHT22;25154;-33.684;151.102;2023-04-06T04:10:14;20.60;99.90
39453;DHT22;25154;-33.684;151.102;2023-04-06T04:15:17;20.60;99.90
39453;DHT22;25154;-33.684;151.102;2023-04-06T04:20:20;20.80;99.90
39453;DHT22;25154;-33.684;151.102;2023-04-06T04:25:23;21.00;99.90
39453;DHT22;25154;-33.684;151.102;2023-04-06T04:30:26;21.50;99.90
39453;DHT22;25154;-33.684;151.102;2023-04-06T04:35:29;21.90;99.90
39453;DHT22;25154;-33.684;151.102;2023-04-06T04:40:32;22.40;99.90
39453;DHT22;25154;-33.684;151.102;2023-04-06T04:45:35;22.60;99.90
39453;DHT22;25154;-33.684;151.102;2023-04-06T04:50:37;22.60;99.90
39453;DHT22;25154;-33.684;151.102;2023-04-06T04:55:40;22.20;99.90
39453;DHT22;25154;-33.684;151.102;2023-04-06T05:00:43;22.00;99.90
39453;DHT22;25154;-33.684;151.102;2023-04-06T05:05:46;21.70;99.90
39453;DHT22;25154;-33.684;151.102;2023-04-06T05:10:49;21.40;99.90
39453;DHT22;25154;-33.684;151.102;2023-04-06T05:15:52;21.30;99.90
39453;DHT22;25154;-33.684;151.102;2023-04-06T05:20:55;21.20;99.90
39453;DHT22;25154;-33.684;151.102;2023-04-06T05:25:58;21.20;99.90
39453;DHT22;25154;-33.684;151.102;2023-04-06T05:31:01;21.10;99.90
39453;DHT22;25154;-33.684;151.102;2023-04-06T05:36:04;21.00;99.90
39453;DHT22;25154;-33.684;151.102;2023-04-06T05:41:09;20.90;99.90
39453;DHT22;25154;-33.684;151.102;2023-04-06T05:46:12;20.70;99.90
39453;DHT22;25154;-33.684;151.102;2023-04-06T05:51:14;20.50;99.90
39453;DHT22;25154;-33.684;151.102;2023-04-06T05:56:17;20.30;99.90
39453;DHT22;25154;-33.684;151.102;2023-04-06T06:01:20;20.20;99.90
39453;DHT22;25154;-33.684;151.102;2023-04-06T06:06:23;20.20;99.90
39453;DHT22;25154;-33.684;151.102;2023-04-06T06:11:26;20.10;99.90
39453;DHT22;25154;-33.684;151.102;2023-04-06T06:16:28;19.90;99.90
39453;DHT22;25154;-33.684;151.102;2023-04-06T06:21:31;19.70;99.90
39453;DHT22;25154;-33.684;151.102;2023-04-06T06:26:34;19.60;99.90
39453;DHT22;25154;-33.684;151.102;2023-04-06T06:31:38;19.50;99.90
39453;DHT22;25154;-33.684;151.102;2023-04-06T06:36:41;19.40;99.90
39453;DHT22;25154;-33.684;151.102;2023-04-06T06:41:44;19.20;99.90
39453;DHT22;25154;-33.684;151.102;2023-04-06T06:46:47;19.10;99.90
39453;DHT22;25154;-33.684;151.102;2023-04-06T06:51:50;18.90;99.90
39453;DHT22;25154;-33.684;151.102;2023-04-06T06:56:53;18.80;99.90
39453;DHT22;25154;-33.684;151.102;2023-04-06T07:01:56;18.70;99.90
39453;DHT22;25154;-33.684;151.102;2023-04-06T07:06:59;18.50;99.90
39453;DHT22;25154;-33.684;151.102;2023-04-06T07:12:03;18.40;99.90
39453;DHT22;25154;-33.684;151.102;2023-04-06T07:17:06;18.30;99.90
39453;DHT22;25154;-33.684;151.102;2023-04-06T07:22:08;18.20;99.90
39453;DHT22;25154;-33.684;151.102;2023-04-06T07:27:11;18.10;99.90
39453;DHT22;25154;-33.684;151.102;2023-04-06T07:32:14;18.10;99.90
39453;DHT22;25154;-33.684;151.102;2023-04-06T07:37:17;17.90;99.90
39453;DHT22;25154;-33.684;151.102;2023-04-06T07:42:19;17.80;99.90
39453;DHT22;25154;-33.684;151.102;2023-04-06T07:47:22;17.70;99.90
39453;DHT22;25154;-33.684;151.102;2023-04-06T07:52:25;17.50;99.90
39453;DHT22;25154;-33.684;151.102;2023-04-06T07:57:28;17.40;99.90
39453;DHT22;25154;-33.684;151.102;2023-04-06T08:02:34;17.20;99.90
39453;DHT22;25154;-33.684;151.102;2023-04-06T08:07:36;17.00;99.90
39453;DHT22;25154;-33.684;151.102;2023-04-06T08:12:39;16.90;99.90
39453;DHT22;25154;-33.684;151.102;2023-04-06T08:17:42;16.70;99.90
39453;DHT22;25154;-33.684;151.102;2023-04-06T08:22:45;16.60;99.90
39453;DHT22;25154;-33.684;151.102;2023-04-06T08:27:48;16.60;99.90
39453;DHT22;25154;-33.684;151.102;2023-04-06T08:32:50;16.50;99.90
39453;DHT22;25154;-33.684;151.102;2023-04-06T08:37:53;16.50;99.90
39453;DHT22;25154;-33.684;151.102;2023-04-06T08:42:56;16.40;99.90
39453;DHT22;25154;-33.684;151.102;2023-04-06T08:48:04;16.30;99.90
39453;DHT22;25154;-33.684;151.102;2023-04-06T08:53:08;16.20;99.90
39453;DHT22;25154;-33.684;151.102;2023-04-06T08:58:11;16.20;99.90
39453;DHT22;25154;-33.684;151.102;2023-04-06T09:03:14;16.00;99.90
39453;DHT22;25154;-33.684;151.102;2023-04-06T09:08:17;15.90;99.90
39453;DHT22;25154;-33.684;151.102;2023-04-06T09:13:20;15.80;99.90
39453;DHT22;25154;-33.684;151.102;2023-04-06T09:18:30;15.80;99.90
39453;DHT22;25154;-33.684;151.102;2023-04-06T09:23:34;15.70;99.90
39453;DHT22;25154;-33.684;151.102;2023-04-06T09:28:56;15.60;99.90
39453;DHT22;25154;-33.684;151.102;2023-04-06T09:33:59;15.60;99.90
39453;DHT22;25154;-33.684;151.102;2023-04-06T09:39:04;15.60;99.90
39453;DHT22;25154;-33.684;151.102;2023-04-06T09:44:11;15.40;99.90
39453;DHT22;25154;-33.684;151.102;2023-04-06T09:49:15;15.40;99.90
39453;DHT22;25154;-33.684;151.102;2023-04-06T09:54:20;15.30;99.90
39453;DHT22;25154;-33.684;151.102;2023-04-06T10:00:11;15.30;99.90
39453;DHT22;25154;-33.684;151.102;2023-04-06T10:05:02;15.10;99.90
39453;DHT22;25154;-33.684;151.102;2023-04-06T10:10:05;15.20;99.90
39453;DHT22;25154;-33.684;151.102;2023-04-06T10:15:09;15.10;99.90
39453;DHT22;25154;-33.684;151.102;2023-04-06T10:20:23;15.10;99.90
39453;DHT22;25154;-33.684;151.102;2023-04-06T10:25:33;14.90;99.90
39453;DHT22;25154;-33.684;151.102;2023-04-06T10:30:42;14.80;99.90
39453;DHT22;25154;-33.684;151.102;2023-04-06T10:35:46;14.80;99.90
39453;DHT22;25154;-33.684;151.102;2023-04-06T10:40:49;14.90;99.90
39453;DHT22;25154;-33.684;151.102;2023-04-06T10:46:00;14.80;99.90
39453;DHT22;25154;-33.684;151.102;2023-04-06T10:51:11;14.60;99.90
39453;DHT22;25154;-33.684;151.102;2023-04-06T10:56:16;14.60;99.90
39453;DHT22;25154;-33.684;151.102;2023-04-06T11:01:20;14.50;99.90
39453;DHT22;25154;-33.684;151.102;2023-04-06T11:06:25;14.50;99.90
39453;DHT22;25154;-33.684;151.102;2023-04-06T11:11:28;14.40;99.90
39453;DHT22;25154;-33.684;151.102;2023-04-06T11:16:32;14.40;99.90
39453;DHT22;25154;-33.684;151.102;2023-04-06T11:26:43;14.20;99.90
39453;DHT22;25154;-33.684;151.102;2023-04-06T11:31:50;14.10;99.90
39453;DHT22;25154;-33.684;151.102;2023-04-06T11:36:58;14.10;99.90
39453;DHT22;25154;-33.684;151.102;2023-04-06T11:42:02;14.20;99.90
39453;DHT22;25154;-33.684;151.102;2023-04-06T11:47:07;14.20;99.90
39453;DHT22;25154;-33.684;151.102;2023-04-06T11:52:19;14.20;99.90
39453;DHT22;25154;-33.684;151.102;2023-04-06T11:57:23;14.10;99.90
39453;DHT22;25154;-33.684;151.102;2023-04-06T12:02:29;14.10;99.90
39453;DHT22;25154;-33.684;151.102;2023-04-06T12:07:34;14.00;99.90
39453;DHT22;25154;-33.684;151.102;2023-04-06T12:12:37;13.90;99.90
39453;DHT22;25154;-33.684;151.102;2023-04-06T12:17:40;13.80;99.90
39453;DHT22;25154;-33.684;151.102;2023-04-06T12:22:43;13.80;99.90
39453;DHT22;25154;-33.684;151.102;2023-04-06T12:27:45;13.80;99.90
39453;DHT22;25154;-33.684;151.102;2023-04-06T12:32:49;13.90;99.90
39453;DHT22;25154;-33.684;151.102;2023-04-06T12:37:52;13.90;99.90
39453;DHT22;25154;-33.684;151.102;2023-04-06T12:42:56;13.80;99.90
39453;DHT22;25154;-33.684;151.102;2023-04-06T12:47:58;13.80;99.90
39453;DHT22;25154;-33.684;151.102;2023-04-06T12:53:01;13.90;99.90
39453;DHT22;25154;-33.684;151.102;2023-04-06T12:58:03;13.80;99.90
39453;DHT22;25154;-33.684;151.102;2023-04-06T13:03:06;13.90;99.90
39453;DHT22;25154;-33.684;151.102;2023-04-06T13:08:08;13.90;99.90
39453;DHT22;25154;-33.684;151.102;2023-04-06T13:13:11;13.80;99.90
39453;DHT22;25154;-33.684;151.102;2023-04-06T13:18:13;13.80;99.90
39453;DHT22;25154;-33.684;151.102;2023-04-06T13:23:16;13.80;99.90
39453;DHT22;25154;-33.684;151.102;2023-04-06T13:28:18;13.70;99.90
39453;DHT22;25154;-33.684;151.102;2023-04-06T13:33:23;13.70;99.90
39453;DHT22;25154;-33.684;151.102;2023-04-06T13:38:26;13.70;99.90
39453;DHT22;25154;-33.684;151.102;2023-04-06T13:43:29;13.60;99.90
39453;DHT22;25154;-33.684;151.102;2023-04-06T13:48:32;13.70;99.90
39453;DHT22;25154;-33.684;151.102;2023-04-06T13:53:35;13.60;99.90
39453;DHT22;25154;-33.684;151.102;2023-04-06T13:58:41;13.50;99.90
39453;DHT22;25154;-33.684;151.102;2023-04-06T14:03:44;13.50;99.90
39453;DHT22;25154;-33.684;151.102;2023-04-06T14:08:49;13.50;99.90
39453;DHT22;25154;-33.684;151.102;2023-04-06T14:13:52;13.40;99.90
39453;DHT22;25154;-33.684;151.102;2023-04-06T14:18:56;13.50;99.90
39453;DHT22;25154;-33.684;151.102;2023-04-06T14:23:59;13.50;99.90
39453;DHT22;25154;-33.684;151.102;2023-04-06T14:29:06;13.60;99.90
39453;DHT22;25154;-33.684;151.102;2023-04-06T14:34:09;13.70;99.90
39453;DHT22;25154;-33.684;151.102;2023-04-06T14:39:12;13.50;99.90
39453;DHT22;25154;-33.684;151.102;2023-04-06T14:44:16;13.40;99.90
39453;DHT22;25154;-33.684;151.102;2023-04-06T14:49:19;13.40;99.90
39453;DHT22;25154;-33.684;151.102;2023-04-06T14:54:22;13.50;99.90
39453;DHT22;25154;-33.684;151.102;2023-04-06T14:59:25;13.50;99.90
39453;DHT22;25154;-33.684;151.102;2023-04-06T15:04:30;13.40;99.90
39453;DHT22;25154;-33.684;151.102;2023-04-06T15:09:33;13.40;99.90
39453;DHT22;25154;-33.684;151.102;2023-04-06T15:14:35;13.50;99.90
39453;DHT22;25154;-33.684;151.102;2023-04-06T15:19:38;13.40;99.90
39453;DHT22;25154;-33.684;151.102;2023-04-06T15:24:41;13.30;99.90
39453;DHT22;25154;-33.684;151.102;2023-04-06T15:29:44;13.30;99.90
39453;DHT22;25154;-33.684;151.102;2023-04-06T15:34:47;13.30;99.90
39453;DHT22;25154;-33.684;151.102;2023-04-06T15:39:49;13.10;99.90
39453;DHT22;25154;-33.684;151.102;2023-04-06T15:44:52;13.10;99.90
39453;DHT22;25154;-33.684;151.102;2023-04-06T15:49:58;13.10;99.90
39453;DHT22;25154;-33.684;151.102;2023-04-06T15:55:03;13.00;99.90
39453;DHT22;25154;-33.684;151.102;2023-04-06T16:00:08;12.90;99.90
39453;DHT22;25154;-33.684;151.102;2023-04-06T16:05:11;12.80;99.90
39453;DHT22;25154;-33.684;151.102;2023-04-06T16:10:14;12.80;99.90
39453;DHT22;25154;-33.684;151.102;2023-04-06T16:15:16;12.90;99.90
39453;DHT22;25154;-33.684;151.102;2023-04-06T16:20:19;12.90;99.90
39453;DHT22;25154;-33.684;151.102;2023-04-06T16:25:22;13.00;99.90
39453;DHT22;25154;-33.684;151.102;2023-04-06T16:30:25;13.00;99.90
39453;DHT22;25154;-33.684;151.102;2023-04-06T16:35:31;13.10;99.90
39453;DHT22;25154;-33.684;151.102;2023-04-06T16:40:34;13.10;99.90
39453;DHT22;25154;-33.684;151.102;2023-04-06T16:45:37;13.00;99.90
39453;DHT22;25154;-33.684;151.102;2023-04-06T16:50:40;13.00;99.90
39453;DHT22;25154;-33.684;151.102;2023-04-06T16:55:43;12.80;99.90
39453;DHT22;25154;-33.684;151.102;2023-04-06T17:00:46;12.90;99.90
39453;DHT22;25154;-33.684;151.102;2023-04-06T17:05:49;13.10;99.90
39453;DHT22;25154;-33.684;151.102;2023-04-06T17:10:52;13.00;99.90
39453;DHT22;25154;-33.684;151.102;2023-04-06T17:15:54;13.00;99.90
39453;DHT22;25154;-33.684;151.102;2023-04-06T17:20:58;13.00;99.90
39453;DHT22;25154;-33.684;151.102;2023-04-06T17:26:05;13.00;99.90
39453;DHT22;25154;-33.684;151.102;2023-04-06T17:31:09;13.00;99.90
39453;DHT22;25154;-33.684;151.102;2023-04-06T17:36:12;13.00;99.90
39453;DHT22;25154;-33.684;151.102;2023-04-06T17:41:15;13.00;99.90
39453;DHT22;25154;-33.684;151.102;2023-04-06T17:46:18;13.00;99.90
39453;DHT22;25154;-33.684;151.102;2023-04-06T17:51:22;13.00;99.90
39453;DHT22;25154;-33.684;151.102;2023-04-06T17:56:25;13.10;99.90
39453;DHT22;25154;-33.684;151.102;2023-04-06T18:01:28;13.00;99.90
39453;DHT22;25154;-33.684;151.102;2023-04-06T18:06:32;13.10;99.90
39453;DHT22;25154;-33.684;151.102;2023-04-06T18:11:35;13.10;99.90
39453;DHT22;25154;-33.684;151.102;2023-04-06T18:16:38;13.20;99.90
39453;DHT22;25154;-33.684;151.102;2023-04-06T18:21:42;13.10;99.90
39453;DHT22;25154;-33.684;151.102;2023-04-06T18:26:44;13.10;99.90
39453;DHT22;25154;-33.684;151.102;2023-04-06T18:31:47;12.80;99.90
39453;DHT22;25154;-33.684;151.102;2023-04-06T18:36:52;13.20;99.90
39453;DHT22;25154;-33.684;151.102;2023-04-06T18:41:55;13.20;99.90
39453;DHT22;25154;-33.684;151.102;2023-04-06T18:47:00;13.10;99.90
39453;DHT22;25154;-33.684;151.102;2023-04-06T18:52:06;13.10;99.90
39453;DHT22;25154;-33.684;151.102;2023-04-06T18:57:08;13.00;99.90
39453;DHT22;25154;-33.684;151.102;2023-04-06T19:02:12;13.00;99.90
39453;DHT22;25154;-33.684;151.102;2023-04-06T19:07:15;13.00;99.90
39453;DHT22;25154;-33.684;151.102;2023-04-06T19:12:17;12.90;99.90
39453;DHT22;25154;-33.684;151.102;2023-04-06T19:17:20;12.90;99.90
39453;DHT22;25154;-33.684;151.102;2023-04-06T19:22:24;12.90;99.90
39453;DHT22;25154;-33.684;151.102;2023-04-06T19:27:26;13.00;99.90
39453;DHT22;25154;-33.684;151.102;2023-04-06T19:32:29;13.10;99.90
39453;DHT22;25154;-33.684;151.102;2023-04-06T19:37:36;13.10;99.90
39453;DHT22;25154;-33.684;151.102;2023-04-06T19:42:39;13.00;99.90
39453;DHT22;25154;-33.684;151.102;2023-04-06T19:47:42;12.90;99.90
39453;DHT22;25154;-33.684;151.102;2023-04-06T19:52:45;12.80;99.90
39453;DHT22;25154;-33.684;151.102;2023-04-06T19:57:47;12.90;99.90
39453;DHT22;25154;-33.684;151.102;2023-04-06T20:02:56;12.90;99.90
39453;DHT22;25154;-33.684;151.102;2023-04-06T20:07:59;12.90;99.90
39453;DHT22;25154;-33.684;151.102;2023-04-06T20:13:02;12.80;99.90
39453;DHT22;25154;-33.684;151.102;2023-04-06T20:18:05;12.90;99.90
39453;DHT22;25154;-33.684;151.102;2023-04-06T20:23:07;12.80;99.90
39453;DHT22;25154;-33.684;151.102;2023-04-06T20:28:11;12.70;99.90
39453;DHT22;25154;-33.684;151.102;2023-04-06T20:33:13;12.60;99.90
39453;DHT22;25154;-33.684;151.102;2023-04-06T20:38:16;12.70;99.90
39453;DHT22;25154;-33.684;151.102;2023-04-06T20:43:22;13.00;99.90
39453;DHT22;25154;-33.684;151.102;2023-04-06T20:48:31;12.80;99.90
39453;DHT22;25154;-33.684;151.102;2023-04-06T20:53:36;13.10;99.90
39453;DHT22;25154;-33.684;151.102;2023-04-06T20:58:39;13.10;99.90
39453;DHT22;25154;-33.684;151.102;2023-04-06T21:03:43;13.40;99.90
39453;DHT22;25154;-33.684;151.102;2023-04-06T21:08:45;13.70;99.90
39453;DHT22;25154;-33.684;151.102;2023-04-06T21:13:48;13.80;99.90
39453;DHT22;25154;-33.684;151.102;2023-04-06T21:18:51;14.00;99.90
39453;DHT22;25154;-33.684;151.102;2023-04-06T21:23:54;14.10;99.90
39453;DHT22;25154;-33.684;151.102;2023-04-06T21:29:00;14.30;99.90
39453;DHT22;25154;-33.684;151.102;2023-04-06T21:34:08;15.90;99.90
39453;DHT22;25154;-33.684;151.102;2023-04-06T21:39:11;14.70;99.90
39453;DHT22;25154;-33.684;151.102;2023-04-06T21:44:14;14.90;99.90
39453;DHT22;25154;-33.684;151.102;2023-04-06T21:49:16;15.10;99.90
39453;DHT22;25154;-33.684;151.102;2023-04-06T21:54:19;15.30;99.90
39453;DHT22;25154;-33.684;151.102;2023-04-06T21:59:22;15.60;99.90
39453;DHT22;25154;-33.684;151.102;2023-04-06T22:04:24;15.90;99.90
39453;DHT22;25154;-33.684;151.102;2023-04-06T22:09:27;16.00;99.90
39453;DHT22;25154;-33.684;151.102;2023-04-06T22:14:30;16.20;99.90
39453;DHT22;25154;-33.684;151.102;2023-04-06T22:19:33;16.40;99.90
39453;DHT22;25154;-33.684;151.102;2023-04-06T22:24:35;16.50;99.90
39453;DHT22;25154;-33.684;151.102;2023-04-06T22:29:38;16.40;99.90
39453;DHT22;25154;-33.684;151.102;2023-04-06T22:34:41;16.30;99.90
39453;DHT22;25154;-33.684;151.102;2023-04-06T22:39:45;16.30;99.90
39453;DHT22;25154;-33.684;151.102;2023-04-06T22:44:47;16.30;99.90
39453;DHT22;25154;-33.684;151.102;2023-04-06T22:49:50;16.20;99.90
39453;DHT22;25154;-33.684;151.102;2023-04-06T22:54:53;16.20;99.90
39453;DHT22;25154;-33.684;151.102;2023-04-06T22:59:56;16.10;99.90
39453;DHT22;25154;-33.684;151.102;2023-04-06T23:04:59;16.00;99.90
39453;DHT22;25154;-33.684;151.102;2023-04-06T23:10:02;15.90;99.90
39453;DHT22;25154;-33.684;151.102;2023-04-06T23:15:05;15.90;99.90
39453;DHT22;25154;-33.684;151.102;2023-04-06T23:20:08;15.80;99.90
39453;DHT22;25154;-33.684;151.102;2023-04-06T23:25:10;15.70;99.90
39453;DHT22;25154;-33.684;151.102;2023-04-06T23:30:13;15.70;99.90
39453;DHT22;25154;-33.684;151.102;2023-04-06T23:35:16;15.70;99.90
39453;DHT22;25154;-33.684;151.102;2023-04-06T23:40:19;15.70;99.90
39453;DHT22;25154;-33.684;151.102;2023-04-06T23:45:22;15.60;99.90
39453;DHT22;25154;-33.684;151.102;2023-04-06T23:50:25;15.60;99.90
39453;DHT22;25154;-33.684;151.102;2023-04-06T23:55:27;15.50;99.90
